Time;durP1;ratioP1;P1;durP2;ratioP2;P2;SDS_P1;SDS_P2;PMS_P1;PMS_P2;Temp;Humidity;BMP_temperature;BMP_pressure;BME280_temperature;BME280_humidity;BME280_pressure;Samples;Min_cycle;Max_cycle;Signal;HPM_P1;HPM_P2
2023/02/06 00:01:23;;;;;;;22.80;8.93;;;1.70;99.90;;;;;;5059579;28;25061;-73
2023/02/06 00:03:50;;;;;;;21.38;7.30;;;1.60;99.90;;;;;;5059323;28;25079;-73
2023/02/06 00:06:18;;;;;;;21.65;9.60;;;1.50;99.90;;;;;;5041712;28;25064;-73
2023/02/06 00:08:45;;;;;;;24.08;10.27;;;1.50;99.90;;;;;;5059251;28;25078;-73
2023/02/06 00:11:15;;;;;;;20.33;7.93;;;1.50;99.90;;;;;;5059317;28;25100;-73
2023/02/06 00:13:43;;;;;;;21.35;9.75;;;1.50;99.90;;;;;;5059145;28;25069;-73
2023/02/06 00:16:36;;;;;;;20.40;8.98;;;1.40;99.90;;;;;;5059583;28;25068;-73
2023/02/06 00:19:04;;;;;;;30.60;11.27;;;1.40;99.90;;;;;;5057440;28;25063;-73
2023/02/06 00:21:31;;;;;;;21.98;9.23;;;1.30;99.90;;;;;;5059582;28;25105;-73
2023/02/06 00:24:00;;;;;;;20.30;8.05;;;1.20;99.90;;;;;;5059492;28;25099;-73
2023/02/06 00:26:28;;;;;;;18.25;8.23;;;1.10;99.90;;;;;;5058442;28;25069;-73
2023/02/06 00:28:55;;;;;;;17.33;8.35;;;1.00;99.90;;;;;;5058885;28;25087;-73
2023/02/06 00:31:22;;;;;;;25.02;9.40;;;0.90;99.90;;;;;;5068658;28;25078;-73
2023/02/06 00:33:49;;;;;;;34.13;10.98;;;0.80;99.90;;;;;;5079073;28;25116;-73
2023/02/06 00:36:17;;;;;;;26.83;11.02;;;0.70;99.90;;;;;;5077899;28;25139;-73
2023/02/06 00:38:44;;;;;;;30.92;11.45;;;0.70;99.90;;;;;;5078696;28;25065;-73
2023/02/06 00:41:11;;;;;;;28.02;11.18;;;0.70;99.90;;;;;;5078651;28;25079;-73
2023/02/06 00:43:39;;;;;;;27.38;11.50;;;0.70;99.90;;;;;;5077527;28;25118;-73
2023/02/06 00:46:07;;;;;;;31.40;10.98;;;0.70;99.90;;;;;;5078775;28;25070;-73
2023/02/06 00:48:34;;;;;;;30.75;11.77;;;0.60;99.90;;;;;;5078012;28;25105;-73
2023/02/06 00:51:01;;;;;;;32.00;11.35;;;0.60;99.90;;;;;;5078070;28;25076;-73
2023/02/06 00:53:29;;;;;;;35.88;11.48;;;0.60;99.90;;;;;;5078723;28;25081;-73
2023/02/06 00:55:56;;;;;;;30.90;12.30;;;0.60;99.90;;;;;;5077667;28;25109;-73
2023/02/06 00:58:23;;;;;;;27.90;11.02;;;0.70;99.90;;;;;;5077539;28;25131;-73
2023/02/06 01:00:52;;;;;;;30.38;11.27;;;0.70;99.90;;;;;;5078348;28;25076;-73
2023/02/06 01:03:19;;;;;;;31.88;11.95;;;0.70;99.90;;;;;;5078283;28;25073;-73
2023/02/06 01:05:47;;;;;;;29.52;12.00;;;0.80;99.90;;;;;;5078430;28;25092;-73
2023/02/06 01:08:14;;;;;;;29.67;12.35;;;0.80;99.90;;;;;;5078182;28;25103;-73
2023/02/06 01:10:42;;;;;;;42.10;11.48;;;0.90;99.90;;;;;;5077936;28;25067;-73
2023/02/06 01:13:10;;;;;;;29.70;10.82;;;0.90;99.90;;;;;;5077006;28;25070;-73
2023/02/06 01:15:37;;;;;;;30.70;11.75;;;1.00;99.90;;;;;;5078033;28;25121;-73
2023/02/06 01:18:04;;;;;;;30.13;12.30;;;1.00;99.90;;;;;;5078475;28;25049;-73
2023/02/06 01:20:32;;;;;;;24.25;11.10;;;1.10;99.90;;;;;;5078187;28;25107;-73
2023/02/06 01:22:59;;;;;;;26.42;10.85;;;1.10;99.90;;;;;;5077088;28;25133;-73
2023/02/06 01:25:27;;;;;;;27.23;10.25;;;1.20;99.90;;;;;;5076702;28;25104;-73
2023/02/06 01:27:54;;;;;;;22.38;10.40;;;1.20;99.90;;;;;;5077755;28;25126;-73
2023/02/06 01:30:21;;;;;;;23.25;10.57;;;1.20;99.90;;;;;;5070723;28;25116;-73
2023/02/06 01:32:49;;;;;;;26.10;11.68;;;1.30;99.90;;;;;;5057627;28;25067;-73
2023/02/06 01:35:16;;;;;;;20.70;10.40;;;1.30;99.90;;;;;;5057926;28;25090;-73
2023/02/06 01:37:43;;;;;;;22.75;10.10;;;1.30;99.90;;;;;;5057586;28;25059;-73
2023/02/06 01:40:15;;;;;;;22.25;9.80;;;1.30;99.90;;;;;;5039898;28;25059;-73
2023/02/06 01:42:43;;;;;;;20.42;9.07;;;1.30;99.90;;;;;;5039702;28;25083;-73
2023/02/06 01:45:35;;;;;;;25.25;10.88;;;1.30;99.90;;;;;;5057708;28;25087;-73
2023/02/06 01:48:09;;;;;;;32.35;10.82;;;1.40;99.90;;;;;;5039650;28;25075;-73
2023/02/06 01:50:38;;;;;;;21.08;10.48;;;1.30;99.90;;;;;;5039747;28;25073;-73
2023/02/06 01:53:06;;;;;;;22.80;10.02;;;1.30;99.90;;;;;;5057268;28;25060;-73
2023/02/06 01:55:36;;;;;;;22.10;9.95;;;1.30;99.90;;;;;;5057168;28;25069;-73
2023/02/06 01:58:05;;;;;;;25.60;9.50;;;1.30;99.90;;;;;;5056911;28;25088;-73
2023/02/06 02:00:32;;;;;;;25.23;10.15;;;1.30;99.90;;;;;;5057847;28;25079;-73
2023/02/06 02:03:00;;;;;;;21.67;10.40;;;1.30;99.90;;;;;;5057546;28;25057;-73
2023/02/06 02:05:28;;;;;;;22.50;10.30;;;1.40;99.90;;;;;;5039406;28;25149;-73
2023/02/06 02:08:12;;;;;;;21.67;9.85;;;1.30;99.90;;;;;;5057162;28;25057;-73
2023/02/06 02:10:39;;;;;;;22.13;10.15;;;1.40;99.90;;;;;;5056889;28;25070;-73
2023/02/06 02:13:07;;;;;;;22.90;10.15;;;1.30;99.90;;;;;;5039198;28;25068;-73
2023/02/06 02:15:49;;;;;;;25.63;11.50;;;1.40;99.90;;;;;;5056832;28;25071;-73
2023/02/06 02:18:49;;;;;;;24.90;9.85;;;1.40;99.90;;;;;;5056790;28;25073;-73
2023/02/06 02:21:56;;;;;;;21.77;10.55;;;1.40;99.90;;;;;;5056061;28;25061;-73
2023/02/06 02:24:45;;;;;;;15.13;6.90;;;1.40;99.90;;;;;;5056997;28;25048;-73
2023/02/06 02:27:35;;;;;;;21.73;9.73;;;1.40;99.90;;;;;;5056596;28;25120;-73
2023/02/06 02:30:33;;;;;;;25.20;10.63;;;1.50;99.90;;;;;;5056900;28;25097;-73
2023/02/06 02:33:36;;;;;;;24.88;10.23;;;1.50;99.90;;;;;;5056792;28;25068;-73
2023/02/06 02:36:21;;;;;;;20.25;9.63;;;1.50;99.90;;;;;;5056808;28;25124;-73
2023/02/06 02:39:15;;;;;;;28.23;10.70;;;1.50;99.90;;;;;;5056979;28;25058;-73
2023/02/06 02:42:03;;;;;;;29.33;9.98;;;1.50;99.90;;;;;;5056847;28;25047;-73
2023/02/06 02:44:31;;;;;;;24.70;10.68;;;1.50;99.90;;;;;;5056944;28;25094;-73
2023/02/06 02:47:03;;;;;;;27.60;10.82;;;1.60;99.90;;;;;;5056921;28;25064;-73
2023/02/06 02:49:36;;;;;;;26.48;10.20;;;1.60;99.90;;;;;;5056308;28;25112;-73
2023/02/06 02:52:04;;;;;;;35.85;11.40;;;1.70;99.90;;;;;;5038690;28;25157;-73
2023/02/06 02:54:31;;;;;;;28.23;11.50;;;1.70;99.90;;;;;;5056787;28;25076;-73
2023/02/06 02:57:07;;;;;;;32.20;12.45;;;1.80;99.90;;;;;;5056439;28;25120;-73
2023/02/06 02:59:46;;;;;;;31.20;10.15;;;1.80;99.90;;;;;;5038548;28;25121;-73
2023/02/06 03:02:21;;;;;;;41.28;10.52;;;1.90;99.90;;;;;;5038491;28;25079;-73
2023/02/06 03:05:00;;;;;;;32.88;11.02;;;1.90;99.90;;;;;;5056737;28;25081;-73
2023/02/06 03:08:03;;;;;;;24.45;9.75;;;1.90;99.90;;;;;;5056167;28;25123;-73
2023/02/06 03:10:52;;;;;;;29.70;10.85;;;1.90;99.90;;;;;;5039276;28;25058;-73
2023/02/06 03:13:49;;;;;;;33.47;11.15;;;1.90;99.90;;;;;;5060568;28;25143;-73
2023/02/06 03:16:29;;;;;;;25.33;9.70;;;2.00;99.90;;;;;;5042602;28;25081;-73
2023/02/06 03:19:11;;;;;;;30.00;10.00;;;2.00;99.90;;;;;;5060144;28;25110;-73
2023/02/06 03:21:40;;;;;;;29.48;10.77;;;2.00;99.90;;;;;;5060327;28;25106;-73
2023/02/06 03:24:15;;;;;;;27.08;8.90;;;2.00;99.90;;;;;;5042330;28;25150;-73
2023/02/06 03:26:44;;;;;;;21.60;8.93;;;2.00;99.90;;;;;;5042319;28;25105;-73
2023/02/06 03:29:16;;;;;;;20.20;8.70;;;2.00;99.90;;;;;;5042305;28;25050;-73
2023/02/06 03:31:56;;;;;;;28.30;8.13;;;2.00;99.90;;;;;;5059816;28;25079;-73
2023/02/06 03:34:53;;;;;;;25.88;9.73;;;1.90;99.90;;;;;;5059897;28;25122;-73
2023/02/06 03:37:22;;;;;;;28.02;9.30;;;1.90;99.90;;;;;;5060118;28;25058;-73
2023/02/06 03:39:49;;;;;;;22.90;9.18;;;1.90;99.90;;;;;;5042108;28;25066;-73
2023/02/06 03:42:17;;;;;;;27.92;8.63;;;1.90;99.90;;;;;;5060109;28;25094;-73
2023/02/06 03:44:51;;;;;;;24.90;8.20;;;1.80;99.90;;;;;;5059902;28;25064;-73
2023/02/06 03:47:20;;;;;;;28.73;9.82;;;1.80;99.90;;;;;;5042005;28;25052;-73
2023/02/06 03:49:50;;;;;;;27.17;11.00;;;1.80;99.90;;;;;;5060213;28;25061;-73
2023/02/06 03:52:25;;;;;;;24.25;9.95;;;1.70;99.90;;;;;;5041764;28;25080;-73
2023/02/06 03:55:01;;;;;;;26.80;9.60;;;1.70;99.90;;;;;;5059725;28;25071;-73
2023/02/06 03:57:33;;;;;;;28.63;10.13;;;1.60;99.90;;;;;;5059396;28;25081;-73
2023/02/06 04:00:00;;;;;;;24.83;9.40;;;1.50;99.90;;;;;;5059477;28;25128;-73
2023/02/06 04:02:29;;;;;;;31.60;9.48;;;1.40;99.90;;;;;;5059313;28;25069;-73
2023/02/06 04:04:57;;;;;;;29.88;11.15;;;1.30;99.90;;;;;;5041809;28;25076;-73
2023/02/06 04:07:30;;;;;;;25.40;10.02;;;1.10;99.90;;;;;;5059847;28;25091;-73
2023/02/06 04:09:57;;;;;;;27.10;9.90;;;1.00;99.90;;;;;;5059867;28;25135;-73
2023/02/06 04:12:24;;;;;;;27.25;10.18;;;0.90;99.90;;;;;;5059047;28;25063;-73
2023/02/06 04:14:52;;;;;;;40.50;11.13;;;0.80;99.90;;;;;;5059296;28;25058;-73
2023/02/06 04:17:19;;;;;;;28.75;10.07;;;0.70;99.90;;;;;;5041347;28;25049;-73
2023/02/06 04:19:47;;;;;;;34.72;11.00;;;0.70;99.90;;;;;;5041397;28;25080;-73
2023/02/06 04:22:15;;;;;;;29.05;10.55;;;0.60;99.90;;;;;;5058951;28;25061;-73
2023/02/06 04:24:43;;;;;;;25.15;9.85;;;0.50;99.90;;;;;;5059146;28;25071;-73
2023/02/06 04:27:12;;;;;;;29.08;10.40;;;0.50;99.90;;;;;;5058929;28;25094;-73
2023/02/06 04:29:40;;;;;;;37.00;11.25;;;0.40;99.90;;;;;;5058759;28;25064;-73
2023/02/06 04:32:08;;;;;;;30.98;10.80;;;0.30;99.90;;;;;;5041047;28;25121;-73
2023/02/06 04:34:37;;;;;;;34.30;11.23;;;0.20;99.90;;;;;;5059289;28;25066;-73
2023/02/06 04:37:04;;;;;;;30.88;10.40;;;0.20;99.90;;;;;;5058704;28;25055;-73
2023/02/06 04:39:32;;;;;;;33.05;9.88;;;0.10;99.90;;;;;;5059285;28;25069;-73
2023/02/06 04:42:01;;;;;;;27.48;10.77;;;0.10;99.90;;;;;;5058602;28;25059;-73
2023/02/06 04:44:28;;;;;;;40.88;11.23;;;0.00;99.90;;;;;;5058764;28;25070;-73
2023/02/06 04:46:56;;;;;;;29.45;10.35;;;0.00;99.90;;;;;;5058580;28;25069;-73
2023/02/06 04:49:23;;;;;;;38.20;11.52;;;-0.10;99.90;;;;;;5059054;28;25064;-73
2023/02/06 04:51:50;;;;;;;37.63;12.00;;;-0.10;99.90;;;;;;5057712;28;25085;-73
2023/02/06 04:54:17;;;;;;;42.28;12.63;;;-0.10;99.90;;;;;;5040693;28;25078;-73
2023/02/06 04:56:45;;;;;;;31.50;11.50;;;-0.20;99.90;;;;;;5040587;28;25069;-73
2023/02/06 04:59:12;;;;;;;43.58;14.15;;;-0.20;99.90;;;;;;5040658;28;25119;-73
2023/02/06 05:01:40;;;;;;;49.55;13.68;;;-0.20;99.90;;;;;;5058461;28;25091;-73
2023/02/06 05:04:08;;;;;;;39.42;11.80;;;-0.30;99.90;;;;;;5040509;28;25104;-73
2023/02/06 05:06:35;;;;;;;40.88;13.23;;;-0.30;99.90;;;;;;5058198;28;25072;-73
2023/02/06 05:09:03;;;;;;;43.88;13.57;;;-0.30;99.90;;;;;;5040430;28;25062;-73
2023/02/06 05:11:31;;;;;;;40.45;11.88;;;-0.40;99.90;;;;;;5040442;28;25167;-73
2023/02/06 05:13:58;;;;;;;33.35;11.07;;;-0.50;99.90;;;;;;5040332;28;25092;-73
2023/02/06 05:16:25;;;;;;;50.53;12.65;;;-0.50;99.90;;;;;;5058058;28;25112;-73
2023/02/06 05:18:54;;;;;;;56.83;13.23;;;-0.60;99.90;;;;;;5040528;28;25074;-73
2023/02/06 05:21:22;;;;;;;38.40;12.88;;;-0.60;99.90;;;;;;5057552;28;25068;-73
2023/02/06 05:23:50;;;;;;;40.58;13.57;;;-0.60;99.90;;;;;;5040197;28;25088;-73
2023/02/06 05:26:17;;;;;;;49.45;14.05;;;-0.70;99.90;;;;;;5039760;28;25059;-73
2023/02/06 05:28:45;;;;;;;49.47;14.77;;;-0.60;99.90;;;;;;5057763;28;25054;-73
2023/02/06 05:31:18;;;;;;;40.20;13.45;;;-0.70;99.90;;;;;;5057972;28;25085;-73
2023/02/06 05:33:47;;;;;;;42.13;13.50;;;-0.70;99.90;;;;;;5057115;28;25109;-73
2023/02/06 05:36:15;;;;;;;52.50;15.45;;;-0.70;99.90;;;;;;5039994;28;25062;-73
2023/02/06 05:38:43;;;;;;;53.65;17.10;;;-0.80;99.90;;;;;;5057600;28;25076;-73
2023/02/06 05:41:11;;;;;;;44.85;15.65;;;-0.80;99.90;;;;;;5039925;28;25118;-73
2023/02/06 05:43:38;;;;;;;45.67;14.38;;;-0.80;99.90;;;;;;5039837;28;25114;-73
2023/02/06 05:46:06;;;;;;;40.72;13.60;;;-0.90;99.90;;;;;;5039775;28;25074;-73
2023/02/06 05:48:34;;;;;;;60.85;16.38;;;-0.90;99.90;;;;;;5038928;28;25086;-73
2023/02/06 05:51:01;;;;;;;50.97;16.50;;;-0.90;99.90;;;;;;5057452;28;25136;-73
2023/02/06 05:53:29;;;;;;;56.50;15.25;;;-1.00;99.90;;;;;;5039245;28;25067;-73
2023/02/06 05:55:57;;;;;;;55.10;14.00;;;-1.00;99.90;;;;;;5056589;28;25070;-73
2023/02/06 05:58:24;;;;;;;57.38;15.38;;;-1.00;99.90;;;;;;5057424;28;25099;-73
2023/02/06 06:00:51;;;;;;;44.35;13.93;;;-1.10;99.90;;;;;;5057695;28;25080;-73
2023/02/06 06:03:18;;;;;;;55.15;14.45;;;-1.10;99.90;;;;;;5057641;28;25127;-73
2023/02/06 06:05:46;;;;;;;44.90;14.60;;;-1.10;99.90;;;;;;5039340;28;25100;-73
2023/02/06 06:08:14;;;;;;;53.50;14.57;;;-1.20;99.90;;;;;;5039297;28;25066;-73
2023/02/06 06:10:41;;;;;;;54.67;14.38;;;-1.20;99.90;;;;;;5039139;28;25083;-73
2023/02/06 06:13:08;;;;;;;53.95;15.35;;;-1.20;99.90;;;;;;5056287;28;25072;-73
2023/02/06 06:15:35;;;;;;;86.75;18.48;;;-1.20;99.90;;;;;;5039317;28;25076;-73
2023/02/06 06:18:03;;;;;;;64.97;18.73;;;-1.20;99.90;;;;;;5057082;28;25130;-73
2023/02/06 06:20:30;;;;;;;65.53;16.10;;;-1.30;99.90;;;;;;5056823;28;25046;-73
2023/02/06 06:22:57;;;;;;;61.83;17.00;;;-1.30;99.90;;;;;;5039289;28;25110;-73
2023/02/06 06:25:24;;;;;;;63.95;15.20;;;-1.30;99.90;;;;;;5056777;28;25149;-73
2023/02/06 06:27:52;;;;;;;57.65;13.95;;;-1.30;99.90;;;;;;5056664;28;25077;-73
2023/02/06 06:30:19;;;;;;;53.45;14.23;;;-1.30;99.90;;;;;;5047850;28;25098;-73
2023/02/06 06:32:46;;;;;;;51.72;15.07;;;-1.20;99.90;;;;;;5077103;28;25058;-73
2023/02/06 06:35:13;;;;;;;63.00;14.38;;;-1.10;99.90;;;;;;5077022;28;25123;-73
2023/02/06 06:37:41;;;;;;;52.42;14.75;;;-1.10;99.90;;;;;;5075449;28;25071;-73
2023/02/06 06:40:10;;;;;;;53.72;12.55;;;-1.00;99.90;;;;;;5076596;28;25116;-73
2023/02/06 06:42:38;;;;;;;57.35;13.57;;;-0.90;99.90;;;;;;5075300;28;25077;-73
2023/02/06 06:45:06;;;;;;;63.45;14.35;;;-0.80;99.90;;;;;;5074733;28;25068;-72
2023/02/06 06:47:33;;;;;;;56.00;12.38;;;-0.80;99.90;;;;;;5075358;28;25061;-73
2023/02/06 06:50:00;;;;;;;56.15;13.35;;;-0.70;99.90;;;;;;5076443;28;25116;-72
2023/02/06 06:52:29;;;;;;;60.03;12.82;;;-0.60;99.90;;;;;;5076335;28;25071;-72
2023/02/06 06:54:56;;;;;;;54.33;14.82;;;-0.50;99.90;;;;;;5077078;28;25073;-73
2023/02/06 06:57:23;;;;;;;58.63;13.15;;;-0.50;99.90;;;;;;5074606;28;25054;-73
2023/02/06 06:59:51;;;;;;;58.90;12.80;;;-0.40;99.90;;;;;;5076309;28;25094;-73
2023/02/06 07:02:18;;;;;;;56.90;12.40;;;-0.40;99.90;;;;;;5076278;28;25102;-72
2023/02/06 07:04:47;;;;;;;51.55;13.43;;;-0.40;99.90;;;;;;5075306;28;25078;-72
2023/02/06 07:07:15;;;;;;;45.60;11.38;;;-0.30;99.90;;;;;;5076249;28;25123;-72
2023/02/06 07:09:42;;;;;;;50.60;12.23;;;-0.30;99.90;;;;;;5076508;28;25058;-72
2023/02/06 07:12:09;;;;;;;53.08;12.70;;;-0.30;99.90;;;;;;5076107;28;25049;-72
2023/02/06 07:14:36;;;;;;;59.22;12.82;;;-0.20;99.90;;;;;;5076250;28;25075;-72
2023/02/06 07:17:04;;;;;;;48.22;11.25;;;-0.20;99.90;;;;;;5075034;28;25100;-72
2023/02/06 07:19:31;;;;;;;47.15;12.02;;;-0.20;99.90;;;;;;5073874;28;25060;-73
2023/02/06 07:21:59;;;;;;;42.40;11.57;;;-0.10;99.90;;;;;;5076623;28;25117;-72
2023/02/06 07:24:26;;;;;;;55.00;11.70;;;-0.10;99.90;;;;;;5076108;28;25109;-83
2023/02/06 07:26:56;;;;;;;42.17;12.00;;;-0.10;99.90;;;;;;5076108;28;25103;-72
2023/02/06 07:29:24;;;;;;;40.60;10.88;;;0.00;99.90;;;;;;5076443;28;25090;-74
2023/02/06 07:31:56;;;;;;;40.85;12.20;;;0.00;99.90;;;;;;5056864;28;25117;-80
2023/02/06 07:34:23;;;;;;;40.92;10.07;;;0.00;99.90;;;;;;5055379;28;25124;-80
2023/02/06 07:36:51;;;;;;;42.67;10.95;;;0.00;99.90;;;;;;5056136;28;25133;-82
2023/02/06 07:39:18;;;;;;;47.95;13.07;;;0.10;99.90;;;;;;5038205;28;25125;-81
2023/02/06 07:41:47;;;;;;;41.70;12.45;;;0.10;99.90;;;;;;5038249;28;25078;-80
2023/02/06 07:44:15;;;;;;;42.42;11.63;;;0.10;99.90;;;;;;5055816;28;25076;-80
2023/02/06 07:46:43;;;;;;;40.00;13.00;;;0.20;99.90;;;;;;5056160;28;25106;-79
2023/02/06 07:49:14;;;;;;;35.80;11.20;;;0.20;99.90;;;;;;5056080;28;25098;-78
2023/02/06 07:51:43;;;;;;;31.45;9.57;;;0.30;99.90;;;;;;5038175;28;25097;-76
2023/02/06 07:54:11;;;;;;;30.95;9.65;;;0.30;99.90;;;;;;5055691;28;25071;-76
2023/02/06 07:56:38;;;;;;;30.60;10.18;;;0.30;99.90;;;;;;5056567;28;25061;-75
2023/02/06 07:59:06;;;;;;;33.13;10.88;;;0.40;99.90;;;;;;5059489;28;25144;-75
2023/02/06 08:01:34;;;;;;;35.60;10.55;;;0.40;99.90;;;;;;5041895;28;25071;-75
2023/02/06 08:04:01;;;;;;;32.28;10.45;;;0.40;99.90;;;;;;5041665;28;25119;-72
2023/02/06 08:06:29;;;;;;;41.53;11.07;;;0.50;99.90;;;;;;5041668;28;25169;-73
2023/02/06 08:08:56;;;;;;;29.20;10.85;;;0.50;99.90;;;;;;5059285;28;25122;-73
2023/02/06 08:11:26;;;;;;;29.02;9.82;;;0.50;99.90;;;;;;5059251;28;25124;-73
2023/02/06 08:13:54;;;;;;;35.22;9.52;;;0.50;99.90;;;;;;5059444;28;25060;-72
2023/02/06 08:16:22;;;;;;;29.48;9.65;;;0.50;99.90;;;;;;5059175;28;25060;-73
2023/02/06 08:18:51;;;;;;;29.77;10.68;;;0.60;99.90;;;;;;5041368;28;25149;-72
2023/02/06 08:21:20;;;;;;;35.97;11.13;;;0.60;99.90;;;;;;5059304;28;25049;-76
2023/02/06 08:23:58;;;;;;;22.17;8.73;;;0.60;99.90;;;;;;5058984;28;25048;-67
2023/02/06 08:26:27;;;;;;;27.33;8.38;;;0.60;99.90;;;;;;5058842;28;25072;-69
2023/02/06 08:28:56;;;;;;;31.67;9.63;;;0.60;99.90;;;;;;5041142;28;25056;-70
2023/02/06 08:31:33;;;;;;;27.13;8.20;;;0.60;99.90;;;;;;5067537;28;25060;-75
2023/02/06 08:34:01;;;;;;;23.20;8.10;;;0.60;99.90;;;;;;5079121;28;25107;-68
2023/02/06 08:36:33;;;;;;;25.10;8.80;;;0.60;99.90;;;;;;5079000;28;25092;-68
2023/02/06 08:39:02;;;;;;;27.00;9.60;;;0.70;99.90;;;;;;5078780;28;25139;-69
2023/02/06 08:41:33;;;;;;;36.00;11.02;;;0.80;99.90;;;;;;5077490;28;25073;-68
2023/02/06 08:44:01;;;;;;;37.10;11.27;;;0.80;99.90;;;;;;5078949;28;25066;-69
2023/02/06 08:46:30;;;;;;;33.70;9.93;;;0.90;99.90;;;;;;5078838;28;25074;-71
2023/02/06 08:49:01;;;;;;;29.40;10.23;;;0.90;99.90;;;;;;5078477;28;25127;-72
2023/02/06 08:51:29;;;;;;;27.88;9.77;;;1.00;99.90;;;;;;5078424;28;25076;-71
2023/02/06 08:53:57;;;;;;;27.10;9.55;;;1.00;99.90;;;;;;5077395;28;25148;-71
2023/02/06 08:56:25;;;;;;;27.67;8.68;;;1.10;99.90;;;;;;5078555;28;25382;-72
2023/02/06 08:58:53;;;;;;;29.90;9.98;;;1.10;99.90;;;;;;5078962;28;25066;-71
2023/02/06 09:01:21;;;;;;;32.33;10.48;;;1.20;99.90;;;;;;5078871;28;25055;-71
2023/02/06 09:03:55;;;;;;;25.25;8.65;;;1.20;99.90;;;;;;5078855;28;25108;-69
2023/02/06 09:06:24;;;;;;;25.45;8.45;;;1.30;99.90;;;;;;5078447;28;25078;-70
2023/02/06 09:08:52;;;;;;;26.85;8.18;;;1.40;99.90;;;;;;5076197;28;25105;-70
2023/02/06 09:11:21;;;;;;;23.13;8.40;;;1.50;99.90;;;;;;5076951;28;25066;-70
2023/02/06 09:13:49;;;;;;;21.20;8.25;;;1.60;99.90;;;;;;5076956;28;25061;-70
2023/02/06 09:16:19;;;;;;;24.55;10.00;;;1.80;99.90;;;;;;5078217;28;25076;-70
2023/02/06 09:18:47;;;;;;;26.30;8.25;;;1.90;99.90;;;;;;5076924;28;25079;-70
2023/02/06 09:21:16;;;;;;;26.55;8.55;;;2.00;99.90;;;;;;5077944;28;25097;-70
2023/02/06 09:23:50;;;;;;;21.90;7.47;;;2.20;99.90;;;;;;5078438;28;25096;-70
2023/02/06 09:26:23;;;;;;;24.92;8.52;;;2.30;99.90;;;;;;5076809;28;25061;-70
2023/02/06 09:28:57;;;;;;;25.23;8.35;;;2.40;99.90;;;;;;5076679;28;25128;-69
2023/02/06 09:31:26;;;;;;;21.65;8.20;;;2.50;99.90;;;;;;5076346;28;25074;-69
2023/02/06 09:33:54;;;;;;;21.90;7.97;;;2.60;99.90;;;;;;5078241;28;25100;-69
2023/02/06 09:36:21;;;;;;;26.27;8.88;;;2.70;99.90;;;;;;5078174;28;25091;-68
2023/02/06 09:38:52;;;;;;;24.98;8.00;;;2.70;99.90;;;;;;5077898;28;25119;-72
2023/02/06 09:41:26;;;;;;;21.83;7.18;;;2.80;99.90;;;;;;5077401;28;25124;-78
2023/02/06 09:44:17;;;;;;;23.98;9.40;;;2.80;99.90;;;;;;5077775;28;25070;-75
2023/02/06 09:46:58;;;;;;;24.88;9.23;;;2.80;99.90;;;;;;5062174;28;25083;-75
2023/02/06 09:49:38;;;;;;;20.35;8.25;;;2.80;99.90;;;;;;5078087;28;25120;-73
2023/02/06 09:52:37;;;;;;;21.40;7.55;;;2.80;99.90;;;;;;5077233;28;25063;-72
2023/02/06 09:55:37;;;;;;;19.77;8.00;;;2.80;99.90;;;;;;5077866;28;25090;-72
2023/02/06 09:58:41;;;;;;;26.83;7.93;;;2.80;99.90;;;;;;5076099;28;25104;-72
2023/02/06 10:01:27;;;;;;;22.92;8.20;;;2.80;99.90;;;;;;5011170;28;25058;-72
2023/02/06 10:04:08;;;;;;;19.25;8.05;;;2.80;99.90;;;;;;5077152;28;25137;-73
2023/02/06 10:06:58;;;;;;;23.63;8.32;;;2.80;99.90;;;;;;5077570;28;25113;-72
2023/02/06 10:09:40;;;;;;;23.48;7.05;;;2.90;99.90;;;;;;5077161;28;25085;-74
2023/02/06 10:12:19;;;;;;;18.58;6.72;;;3.00;99.90;;;;;;5077136;28;25158;-73
2023/02/06 10:15:09;;;;;;;24.85;7.20;;;3.00;99.90;;;;;;5077003;28;25068;-73
2023/02/06 10:17:49;;;;;;;17.45;7.68;;;3.20;99.90;;;;;;5076873;28;25057;-75
2023/02/06 10:20:36;;;;;;;18.33;8.13;;;3.20;99.90;;;;;;5077492;28;25103;-72
2023/02/06 10:23:19;;;;;;;29.67;8.13;;;3.30;99.90;;;;;;5075650;28;25105;-78
2023/02/06 10:25:55;;;;;;;23.13;8.23;;;3.40;99.90;;;;;;5077315;28;25075;-74
2023/02/06 10:28:27;;;;;;;;;;;3.50;99.90;;;;;;5077057;28;25067;-72
2023/02/06 10:31:22;;;;;;;21.25;7.13;;;3.50;99.90;;;;;;5075431;28;25075;-74
2023/02/06 10:34:14;;;;;;;20.00;7.25;;;3.50;99.90;;;;;;5075569;28;25086;-72
2023/02/06 10:36:47;;;;;;;32.40;11.95;;;3.60;99.90;;;;;;5076839;28;25105;-72
2023/02/06 10:39:41;;;;;;;19.75;7.47;;;3.50;99.90;;;;;;5076972;28;25072;-72
2023/02/06 10:42:36;;;;;;;20.33;7.80;;;3.50;99.90;;;;;;5075267;28;25112;-72
2023/02/06 10:45:33;;;;;;;24.33;9.13;;;3.50;99.90;;;;;;5077087;28;25078;-72
2023/02/06 10:48:31;;;;;;;30.98;11.23;;;3.60;99.90;;;;;;5075394;28;25101;-72
2023/02/06 10:51:12;;;;;;;26.05;9.10;;;3.60;99.90;;;;;;5076587;28;25101;-72
2023/02/06 10:53:53;;;;;;;39.55;15.68;;;3.60;99.90;;;;;;5076685;28;25138;-72
2023/02/06 10:56:28;;;;;;;26.83;9.80;;;3.70;99.90;;;;;;5076822;28;25051;-73
2023/02/06 10:59:04;;;;;;;29.10;10.93;;;3.60;99.90;;;;;;5075230;28;25068;-72
2023/02/06 11:01:38;;;;;;;39.63;11.38;;;3.60;99.90;;;;;;5077304;28;25109;-72
2023/02/06 11:04:14;;;;;;;21.02;8.18;;;3.60;99.90;;;;;;5075249;28;25059;-74
2023/02/06 11:06:45;;;;;;;21.40;7.90;;;3.60;99.90;;;;;;5076277;28;25072;-72
2023/02/06 11:09:14;;;;;;;23.02;8.88;;;3.60;99.90;;;;;;5076357;28;25121;-78
2023/02/06 11:11:50;;;;;;;24.10;7.88;;;3.70;99.90;;;;;;5074954;28;25399;-72
2023/02/06 11:14:36;;;;;;;20.73;7.90;;;3.70;99.90;;;;;;5076278;28;25118;-73
2023/02/06 11:17:03;;;;;;;15.98;7.25;;;3.70;99.90;;;;;;5075029;28;25119;-72
2023/02/06 11:19:43;;;;;;;23.83;8.32;;;3.80;99.90;;;;;;5076344;28;25054;-72
2023/02/06 11:22:12;;;;;;;28.67;10.95;;;3.80;99.90;;;;;;5076114;28;25072;-72
2023/02/06 11:25:06;;;;;;;29.25;9.98;;;3.90;99.90;;;;;;5076679;28;25124;-72
2023/02/06 11:27:35;;;;;;;19.98;8.43;;;4.00;99.90;;;;;;5076277;28;25062;-72
2023/02/06 11:30:21;;;;;;;25.70;8.65;;;4.10;99.90;;;;;;5072751;28;25146;-72
2023/02/06 11:32:48;;;;;;;20.48;7.50;;;4.20;99.90;;;;;;5058804;28;25074;-72
2023/02/06 11:35:36;;;;;;;19.88;7.03;;;4.40;99.90;;;;;;5042269;28;25067;-73
2023/02/06 11:38:17;;;;;;;28.35;9.82;;;4.50;99.90;;;;;;5059843;28;25082;-72
2023/02/06 11:41:03;;;;;;;21.33;5.80;;;4.60;99.90;;;;;;5042248;28;25068;-74
2023/02/06 11:43:42;;;;;;;20.27;6.97;;;4.70;99.90;;;;;;5059783;28;25153;-74
2023/02/06 11:46:19;;;;;;;14.82;5.13;;;4.70;99.90;;;;;;5042004;28;25078;-72
2023/02/06 11:49:19;;;;;;;17.25;4.28;;;4.80;99.90;;;;;;5059983;28;25073;-73
2023/02/06 11:51:52;;;;;;;15.52;4.78;;;4.90;99.90;;;;;;5058352;28;25108;-76
2023/02/06 11:54:34;;;;;;;23.27;7.85;;;4.80;99.90;;;;;;5059705;28;25063;-76
2023/02/06 11:57:24;;;;;;;18.30;5.32;;;4.70;99.90;;;;;;5060013;28;25070;-75
2023/02/06 12:00:01;;;;;;;17.35;5.20;;;4.70;99.90;;;;;;5059925;28;25051;-73
2023/02/06 12:02:35;;;;;;;14.68;4.18;;;4.60;99.90;;;;;;5059624;28;25077;-75
2023/02/06 12:05:17;;;;;;;15.88;5.35;;;4.60;99.90;;;;;;5059666;28;25122;-75
2023/02/06 12:07:52;;;;;;;13.73;4.70;;;4.60;99.90;;;;;;5059283;28;25071;-72
2023/02/06 12:10:22;;;;;;;14.35;4.70;;;4.50;99.90;;;;;;5059842;28;25126;-74
2023/02/06 12:13:13;;;;;;;14.18;5.25;;;4.50;99.90;;;;;;5059036;28;25085;-73
2023/02/06 12:15:51;;;;;;;13.05;5.00;;;4.50;99.90;;;;;;5059708;28;25061;-73
2023/02/06 12:18:35;;;;;;;10.77;4.30;;;4.50;99.90;;;;;;5059167;28;25078;-73
2023/02/06 12:21:14;;;;;;;15.10;4.70;;;4.50;99.90;;;;;;5059392;28;25101;-73
2023/02/06 12:23:57;;;;;;;13.88;4.40;;;4.50;99.90;;;;;;5059049;28;25110;-74
2023/02/06 12:26:28;;;;;;;19.48;4.07;;;4.50;99.90;;;;;;5041224;28;25053;-74
2023/02/06 12:29:33;;;;;;;17.30;4.70;;;4.60;99.90;;;;;;5041240;28;25065;-74
2023/02/06 12:32:09;;;;;;;22.17;6.47;;;4.70;99.90;;;;;;5076482;28;25054;-75
2023/02/06 12:34:54;;;;;;;15.65;4.60;;;4.70;99.90;;;;;;5079350;28;25096;-75
2023/02/06 12:38:06;;;;;;;18.65;4.93;;;4.60;99.90;;;;;;5077711;28;25078;-74
2023/02/06 12:41:17;;;;;;;16.35;6.07;;;4.60;99.90;;;;;;5078781;28;25068;-75
2023/02/06 12:43:51;;;;;;;11.20;4.68;;;4.70;99.90;;;;;;5039423;28;25095;-75
2023/02/06 12:46:23;;;;;;;14.00;4.78;;;4.70;99.90;;;;;;5077768;28;25104;-75
2023/02/06 12:49:08;;;;;;;16.98;4.63;;;4.80;99.90;;;;;;5079234;28;25083;-75
2023/02/06 12:51:58;;;;;;;15.40;5.38;;;4.80;99.90;;;;;;5078485;28;25074;-75
2023/02/06 12:54:36;;;;;;;20.35;4.78;;;4.80;99.90;;;;;;5078969;28;25097;-75
2023/02/06 12:57:19;;;;;;;19.65;5.13;;;4.90;99.90;;;;;;5077333;28;25090;-75
2023/02/06 13:00:12;;;;;;;20.70;5.05;;;4.90;99.90;;;;;;5077386;28;25072;-75
2023/02/06 13:02:42;;;;;;;11.40;4.57;;;5.00;99.90;;;;;;5078926;28;25052;-73
2023/02/06 13:05:29;;;;;;;18.35;6.82;;;5.00;99.90;;;;;;5077686;28;25142;-75
2023/02/06 13:08:17;;;;;;;12.88;3.97;;;5.00;99.90;;;;;;5078304;28;25063;-74
2023/02/06 13:10:44;;;;;;;10.98;4.78;;;4.90;99.90;;;;;;5077033;28;25107;-75
2023/02/06 13:13:37;;;;;;;19.05;4.88;;;5.00;99.90;;;;;;5077078;28;25083;-76